www.hobby-wetter-faasend.de
Wetterdaten: aktuell Mittwoch, 20.02.2019 00:30
Datum Zeit Temp. A. Temp. A. min Temp. A. max Feuchte A. Luftdruck Regen Wind Richtung Richtung Sonnenschein Taupunkt Windchill Windben
20.02.2019 00:30 0,2 C 0,2 C 0,4 C 90 % 1023,4 hPa 0,0 l/m 0,0 km/h (0 Bft) W 259 0 min -1,2 C 0,2 C 0,0 km/h (0 Bft)
20.02.2019 00:15 0,4 C 0,4 C 0,7 C 89 % 1023,5 hPa 0,0 l/m 0,0 km/h (0 Bft) W 259 0 min -1,2 C 0,4 C 0,0 km/h (0 Bft)
20.02.2019 00:00 0,6 C 0,6 C 0,8 C 90 % 1023,4 hPa 0,0 l/m 0,0 km/h (0 Bft) W 259 0 min -0,8 C 0,6 C 0,0 km/h (0 Bft)
19.02.2019 23:45 0,8 C 0,8 C 0,9 C 89 % 1023,3 hPa 0,0 l/m 0,0 km/h (0 Bft) W 259 0 min -0,8 C 0,8 C 0,0 km/h (0 Bft)
19.02.2019 23:30 0,9 C 0,9 C 1,1 C 89 % 1023,3 hPa 0,0 l/m 0,0 km/h (0 Bft) W 259 0 min -0,7 C 0,9 C 0,0 km/h (0 Bft)
19.02.2019 23:15 1,1 C 1,1 C 1,2 C 89 % 1023,2 hPa 0,0 l/m 0,0 km/h (0 Bft) W 259 0 min -0,5 C 1,1 C 0,0 km/h (0 Bft)
19.02.2019 23:00 1,2 C 1,2 C 1,4 C 89 % 1023,3 hPa 0,0 l/m 0,0 km/h (0 Bft) W 259 0 min -0,4 C 1,2 C 0,0 km/h (0 Bft)
19.02.2019 22:45 1,4 C 1,4 C 1,7 C 88 % 1023,1 hPa 0,0 l/m 0,0 km/h (0 Bft) W 259 0 min -0,4 C 1,4 C 0,0 km/h (0 Bft)
19.02.2019 22:30 1,7 C 1,7 C 1,8 C 88 % 1023,1 hPa 0,0 l/m 0,0 km/h (0 Bft) W 259 0 min -0,1 C 1,7 C 0,0 km/h (0 Bft)
19.02.2019 22:15 1,8 C 1,8 C 2,0 C 88 % 1023,2 hPa 0,0 l/m 0,0 km/h (0 Bft) W 259 0 min 0,0 C 1,8 C 0,0 km/h (0 Bft)
19.02.2019 22:00 2,0 C 2,0 C 2,2 C 87 % 1023,2 hPa 0,0 l/m 0,0 km/h (0 Bft) W 259 0 min 0,1 C 2,0 C 0,0 km/h (0 Bft)
19.02.2019 21:45 2,2 C 2,2 C 2,4 C 87 % 1023,2 hPa 0,0 l/m 0,0 km/h (0 Bft) W 259 0 min 0,3 C 2,2 C 0,0 km/h (0 Bft)
19.02.2019 21:30 2,4 C 2,4 C 2,7 C 86 % 1023,1 hPa 0,0 l/m 0,0 km/h (0 Bft) W 259 0 min 0,3 C 2,4 C 0,0 km/h (0 Bft)
19.02.2019 21:15 2,7 C 2,7 C 2,9 C 86 % 1023,1 hPa 0,0 l/m 0,0 km/h (0 Bft) W 259 0 min 0,6 C 2,7 C 0,0 km/h (0 Bft)
19.02.2019 21:00 2,9 C 2,9 C 3,3 C 86 % 1023,0 hPa 0,0 l/m 0,0 km/h (0 Bft) W 259 0 min 0,8 C 2,9 C 0,0 km/h (0 Bft)
19.02.2019 20:45 3,3 C 3,3 C 3,6 C 86 % 1023,1 hPa 0,0 l/m 0,0 km/h (0 Bft) W 259 0 min 1,2 C 3,3 C 0,0 km/h (0 Bft)
19.02.2019 20:30 3,6 C 3,6 C 3,9 C 86 % 1022,9 hPa 0,0 l/m 0,0 km/h (0 Bft) W 259 0 min 1,5 C 3,6 C 0,0 km/h (0 Bft)
19.02.2019 20:15 3,9 C 3,9 C 4,2 C 85 % 1022,8 hPa 0,0 l/m 0,0 km/h (0 Bft) W 259 0 min 1,6 C 3,9 C 1,6 km/h (1 Bft)
19.02.2019 20:00 4,2 C 4,2 C 4,7 C 84 % 1022,7 hPa 0,0 l/m 0,0 km/h (0 Bft) W 259 0 min 1,7 C 4,2 C 0,0 km/h (0 Bft)
19.02.2019 19:45 4,7 C 4,7 C 5,2 C 83 % 1022,6 hPa 0,0 l/m 0,0 km/h (0 Bft) W 259 0 min 2,1 C 4,7 C 0,0 km/h (0 Bft)
19.02.2019 19:30 5,2 C 5,2 C 5,7 C 82 % 1022,6 hPa 0,0 l/m 0,1 km/h (0 Bft) W 259 0 min 2,4 C 5,2 C 3,2 km/h (1 Bft)
19.02.2019 19:15 5,7 C 5,7 C 6,6 C 81 % 1022,4 hPa 0,0 l/m 0,4 km/h (0 Bft) W 259 0 min 2,7 C 5,7 C 3,2 km/h (1 Bft)
19.02.2019 19:00 6,6 C 6,6 C 7,3 C 78 % 1022,3 hPa 0,0 l/m 0,0 km/h (0 Bft) W 259 0 min 3,0 C 6,6 C 1,6 km/h (1 Bft)
19.02.2019 18:45 7,3 C 7,3 C 7,8 C 76 % 1022,1 hPa 0,0 l/m 0,0 km/h (0 Bft) W 259 0 min 3,4 C 7,3 C 0,0 km/h (0 Bft)
19.02.2019 18:30 7,8 C 7,8 C 8,3 C 75 % 1022,1 hPa 0,0 l/m 0,0 km/h (0 Bft) W 259 0 min 3,7 C 7,8 C 0,0 km/h (0 Bft)
19.02.2019 18:15 8,3 C 8,3 C 8,6 C 73 % 1022,0 hPa 0,0 l/m 0,0 km/h (0 Bft) W 259 0 min 3,8 C 8,3 C 0,0 km/h (0 Bft)
19.02.2019 18:00 8,6 C 8,6 C 8,9 C 72 % 1021,9 hPa 0,0 l/m 0,4 km/h (0 Bft) W 259 0 min 3,8 C 8,6 C 4,8 km/h (1 Bft)
19.02.2019 17:45 8,9 C 8,9 C 9,1 C 71 % 1021,9 hPa 0,0 l/m 0,1 km/h (0 Bft) W 265 0 min 3,9 C 8,9 C 4,8 km/h (1 Bft)
19.02.2019 17:30 9,1 C 9,1 C 9,3 C 71 % 1021,8 hPa 0,0 l/m 0,6 km/h (0 Bft) W-NW 297 0 min 4,1 C 9,1 C 4,8 km/h (1 Bft)
19.02.2019 17:16 9,3 C 9,3 C 9,5 C 72 % 1022,0 hPa 0,0 l/m 1,1 km/h (1 Bft) W-SW 255 0 min 4,5 C 9,3 C 9,7 km/h (2 Bft)
19.02.2019 17:00 9,4 C 9,4 C 9,7 C 71 % 1022,0 hPa 0,0 l/m 0,6 km/h (0 Bft) W-NW 298 0 min 4,4 C 9,4 C 8,0 km/h (2 Bft)
19.02.2019 16:45 9,7 C 9,7 C 9,9 C 72 % 1021,9 hPa 0,0 l/m 3,5 km/h (1 Bft) W-NW 289 0 min 4,9 C 9,7 C 17,7 km/h (3 Bft)
19.02.2019 16:30 9,9 C 9,9 C 9,9 C 73 % 1021,9 hPa 0,0 l/m 1,6 km/h (1 Bft) W 275 0 min 5,3 C 9,9 C 8,0 km/h (2 Bft)
19.02.2019 16:15 9,9 C 9,8 C 9,9 C 73 % 1021,9 hPa 0,0 l/m 1,4 km/h (1 Bft) SW 221 0 min 5,3 C 9,9 C 8,0 km/h (2 Bft)
19.02.2019 16:00 9,8 C 9,8 C 9,9 C 73 % 1021,9 hPa 0,0 l/m 2,1 km/h (1 Bft) W-NW 294 0 min 5,2 C 9,8 C 12,9 km/h (3 Bft)
19.02.2019 15:45 9,9 C 9,8 C 9,9 C 74 % 1021,9 hPa 0,0 l/m 1,9 km/h (1 Bft) W-SW 250 0 min 5,5 C 9,9 C 14,5 km/h (3 Bft)
19.02.2019 15:30 9,9 C 9,8 C 9,9 C 72 % 1021,9 hPa 0,0 l/m 1,0 km/h (0 Bft) NW 304 0 min 5,1 C 9,9 C 9,7 km/h (2 Bft)
19.02.2019 15:15 9,9 C 9,8 C 9,9 C 72 % 1021,9 hPa 0,0 l/m 1,1 km/h (1 Bft) S-SW 213 0 min 5,1 C 9,9 C 9,7 km/h (2 Bft)
19.02.2019 15:00 9,9 C 9,9 C 9,9 C 72 % 1021,8 hPa 0,0 l/m 2,0 km/h (1 Bft) S 174 0 min 5,1 C 9,9 C 14,5 km/h (3 Bft)
19.02.2019 14:45 9,9 C 9,7 C 10,0 C 72 % 1021,8 hPa 0,0 l/m 1,8 km/h (1 Bft) W 281 0 min 5,1 C 9,9 C 12,9 km/h (3 Bft)
19.02.2019 14:30 9,8 C 9,8 C 10,2 C 73 % 1021,8 hPa 0,0 l/m 2,3 km/h (1 Bft) W 271 0 min 5,2 C 9,8 C 11,3 km/h (2 Bft)
19.02.2019 14:15 10,1 C 9,8 C 10,3 C 72 % 1021,7 hPa 0,0 l/m 1,8 km/h (1 Bft) W-NW 284 0 min 5,3 C 10,1 C 12,9 km/h (3 Bft)
19.02.2019 14:00 9,8 C 9,6 C 9,8 C 74 % 1021,8 hPa 0,0 l/m 1,4 km/h (1 Bft) W-NW 285 0 min 5,4 C 9,8 C 11,3 km/h (2 Bft)
19.02.2019 13:45 9,7 C 9,4 C 9,7 C 73 % 1022,0 hPa 0,0 l/m 3,2 km/h (1 Bft) W 259 0 min 5,1 C 9,7 C 11,3 km/h (2 Bft)
19.02.2019 13:30 9,4 C 9,4 C 9,7 C 74 % 1022,0 hPa 0,0 l/m 1,9 km/h (1 Bft) N-NW 331 0 min 5,0 C 9,4 C 12,9 km/h (3 Bft)
19.02.2019 13:15 9,4 C 9,2 C 9,4 C 74 % 1022,1 hPa 0,0 l/m 2,3 km/h (1 Bft) N-NW 328 0 min 5,0 C 9,4 C 11,3 km/h (2 Bft)
19.02.2019 13:00 9,4 C 9,4 C 9,7 C 76 % 1022,2 hPa 0,0 l/m 1,5 km/h (1 Bft) N-NO 12 0 min 5,4 C 9,4 C 9,7 km/h (2 Bft)
19.02.2019 12:45 9,6 C 9,3 C 9,7 C 76 % 1022,3 hPa 0,0 l/m 0,4 km/h (0 Bft) N-NO 18 0 min 5,6 C 9,6 C 8,0 km/h (2 Bft)
19.02.2019 12:30 9,6 C 9,1 C 9,6 C 77 % 1022,3 hPa 0,0 l/m 1,5 km/h (1 Bft) W-SW 244 0 min 5,8 C 9,6 C 12,9 km/h (3 Bft)
19.02.2019 12:15 9,3 C 8,6 C 9,3 C 79 % 1022,5 hPa 0,0 l/m 1,6 km/h (1 Bft) SW 232 0 min 5,8 C 9,3 C 9,7 km/h (2 Bft)
19.02.2019 12:00 8,6 C 7,2 C 8,6 C 86 % 1022,6 hPa 0,0 l/m 0,5 km/h (0 Bft) W-NW 301 0 min 6,4 C 8,6 C 6,4 km/h (2 Bft)
19.02.2019 11:45 7,2 C 6,9 C 7,2 C 92 % 1022,4 hPa 0,0 l/m 0,4 km/h (0 Bft) W-NW 290 0 min 6,0 C 7,2 C 6,4 km/h (2 Bft)
19.02.2019 11:30 6,9 C 6,6 C 6,9 C 92 % 1022,2 hPa 0,0 l/m 0,2 km/h (0 Bft) S 187 0 min 5,7 C 6,9 C 4,8 km/h (1 Bft)
19.02.2019 11:15 6,6 C 6,3 C 6,6 C 92 % 1022,1 hPa 0,0 l/m 0,0 km/h (0 Bft) S 187 0 min 5,4 C 6,6 C 1,6 km/h (1 Bft)
19.02.2019 11:00 6,3 C 6,1 C 6,3 C 92 % 1021,8 hPa 0,0 l/m 0,3 km/h (0 Bft) S 187 0 min 5,1 C 6,3 C 4,8 km/h (1 Bft)
19.02.2019 10:45 6,1 C 5,9 C 6,1 C 92 % 1021,8 hPa 0,0 l/m 0,0 km/h (0 Bft) S 187 0 min 4,9 C 6,1 C 1,6 km/h (1 Bft)
19.02.2019 10:30 5,9 C 5,5 C 5,9 C 92 % 1021,8 hPa 0,0 l/m 0,2 km/h (0 Bft) S 187 0 min 4,7 C 5,9 C 3,2 km/h (1 Bft)
19.02.2019 10:15 5,5 C 5,1 C 5,5 C 92 % 1021,5 hPa 0,0 l/m 0,0 km/h (0 Bft) S 187 0 min 4,3 C 5,5 C 0,0 km/h (0 Bft)
19.02.2019 10:00 5,1 C 4,9 C 5,1 C 91 % 1021,5 hPa 0,2 l/m 0,0 km/h (0 Bft) S 187 0 min 3,8 C 5,1 C 0,0 km/h (0 Bft)
19.02.2019 09:45 4,9 C 4,7 C 4,9 C 91 % 1021,4 hPa 0,0 l/m 0,0 km/h (0 Bft) S 187 0 min 3,6 C 4,9 C 0,0 km/h (0 Bft)
19.02.2019 09:30 4,7 C 4,7 C 4,7 C 91 % 1021,4 hPa 0,0 l/m 0,0 km/h (0 Bft) S 187 0 min 3,4 C 4,7 C 0,0 km/h (0 Bft)
19.02.2019 09:15 4,7 C 4,6 C 4,7 C 91 % 1021,3 hPa 0,2 l/m 0,0 km/h (0 Bft) S 187 0 min 3,4 C 4,7 C 0,0 km/h (0 Bft)
19.02.2019 09:00 4,6 C 4,4 C 4,6 C 91 % 1021,0 hPa 0,0 l/m 0,0 km/h (0 Bft) S 187 0 min 3,3 C 4,6 C 0,0 km/h (0 Bft)
19.02.2019 08:45 4,4 C 4,4 C 4,4 C 90 % 1020,9 hPa 0,0 l/m 0,0 km/h (0 Bft) S 187 0 min 2,9 C 4,4 C 0,0 km/h (0 Bft)
19.02.2019 08:30 4,4 C 4,3 C 4,4 C 90 % 1020,7 hPa 0,0 l/m 0,0 km/h (0 Bft) S 187 0 min 2,9 C 4,4 C 0,0 km/h (0 Bft)
19.02.2019 08:15 4,3 C 4,3 C 4,3 C 90 % 1020,5 hPa 0,0 l/m 0,0 km/h (0 Bft) S 187 0 min 2,8 C 4,3 C 0,0 km/h (0 Bft)
19.02.2019 08:00 4,3 C 4,3 C 4,3 C 90 % 1020,2 hPa 0,0 l/m 0,0 km/h (0 Bft) S 187 0 min 2,8 C 4,3 C 0,0 km/h (0 Bft)
19.02.2019 07:45 4,3 C 4,3 C 4,3 C 90 % 1019,9 hPa 0,0 l/m 0,0 km/h (0 Bft) S 187 0 min 2,8 C 4,3 C 0,0 km/h (0 Bft)
19.02.2019 07:30 4,3 C 4,3 C 4,3 C 91 % 1019,7 hPa 0,0 l/m 0,0 km/h (0 Bft) S 187 0 min 3,0 C 4,3 C 0,0 km/h (0 Bft)
19.02.2019 07:15 4,3 C 4,2 C 4,3 C 91 % 1019,6 hPa 0,0 l/m 0,0 km/h (0 Bft) S 187 0 min 3,0 C 4,3 C 0,0 km/h (0 Bft)
19.02.2019 07:00 4,2 C 3,9 C 4,2 C 92 % 1019,3 hPa 0,0 l/m 0,4 km/h (0 Bft) S 187 0 min 3,0 C 4,2 C 6,4 km/h (2 Bft)
19.02.2019 06:45 3,9 C 3,8 C 3,9 C 92 % 1019,3 hPa 0,0 l/m 0,5 km/h (0 Bft) S-SO 158 0 min 2,7 C 3,9 C 8,0 km/h (2 Bft)
19.02.2019 06:30 3,8 C 3,3 C 3,8 C 92 % 1019,2 hPa 0,0 l/m 0,7 km/h (0 Bft) S-SO 165 0 min 2,6 C 3,8 C 8,0 km/h (2 Bft)
19.02.2019 06:15 3,3 C 3,1 C 3,3 C 93 % 1019,0 hPa 0,0 l/m 0,6 km/h (0 Bft) S-SO 161 0 min 2,3 C 3,3 C 8,0 km/h (2 Bft)
19.02.2019 06:00 3,1 C 2,8 C 3,1 C 93 % 1019,1 hPa 0,0 l/m 0,2 km/h (0 Bft) S 173 0 min 2,1 C 3,1 C 6,4 km/h (2 Bft)
19.02.2019 05:45 2,8 C 2,4 C 2,8 C 93 % 1019,2 hPa 0,0 l/m 0,5 km/h (0 Bft) S 184 0 min 1,8 C 2,8 C 6,4 km/h (2 Bft)
19.02.2019 05:30 2,4 C 1,9 C 2,4 C 93 % 1019,2 hPa 0,0 l/m 0,7 km/h (0 Bft) S 180 0 min 1,4 C 2,4 C 9,7 km/h (2 Bft)
19.02.2019 05:16 1,9 C 1,6 C 1,9 C 93 % 1019,0 hPa 0,0 l/m 0,3 km/h (0 Bft) S-SW 200 0 min 0,9 C 1,9 C 4,8 km/h (1 Bft)
19.02.2019 05:00 1,6 C 1,2 C 1,6 C 92 % 1019,0 hPa 0,0 l/m 0,1 km/h (0 Bft) S-SW 201 0 min 0,4 C 1,6 C 3,2 km/h (1 Bft)
19.02.2019 04:45 1,3 C 0,8 C 1,3 C 92 % 1019,0 hPa 0,0 l/m 0,2 km/h (0 Bft) S-SW 201 0 min 0,1 C 1,3 C 4,8 km/h (1 Bft)
19.02.2019 04:30 0,8 C 0,7 C 0,8 C 91 % 1018,9 hPa 0,0 l/m 0,1 km/h (0 Bft) S-SW 205 0 min -0,5 C 0,8 C 3,2 km/h (1 Bft)
19.02.2019 04:15 0,7 C 0,7 C 0,7 C 91 % 1018,9 hPa 0,0 l/m 0,0 km/h (0 Bft) S-SW 205 0 min -0,6 C 0,7 C 0,0 km/h (0 Bft)
19.02.2019 04:00 0,7 C 0,7 C 0,8 C 90 % 1019,0 hPa 0,0 l/m 0,0 km/h (0 Bft) S-SW 205 0 min -0,7 C 0,7 C 0,0 km/h (0 Bft)
19.02.2019 03:45 0,8 C 0,8 C 0,8 C 90 % 1018,9 hPa 0,0 l/m 0,0 km/h (0 Bft) S-SW 205 0 min -0,6 C 0,8 C 0,0 km/h (0 Bft)
19.02.2019 03:30 0,8 C 0,7 C 0,8 C 90 % 1018,8 hPa 0,0 l/m 0,0 km/h (0 Bft) S-SW 205 0 min -0,6 C 0,8 C 0,0 km/h (0 Bft)
19.02.2019 03:15 0,8 C 0,8 C 0,9 C 90 % 1018,9 hPa 0,0 l/m 0,0 km/h (0 Bft) S-SW 205 0 min -0,6 C 0,8 C 0,0 km/h (0 Bft)
19.02.2019 03:00 0,9 C 0,9 C 1,1 C 90 % 1019,0 hPa 0,0 l/m 0,0 km/h (0 Bft) S-SW 205 0 min -0,6 C 0,9 C 0,0 km/h (0 Bft)
19.02.2019 02:45 1,1 C 1,1 C 1,2 C 89 % 1019,1 hPa 0,0 l/m 0,0 km/h (0 Bft) S-SW 205 0 min -0,5 C 1,1 C 0,0 km/h (0 Bft)
19.02.2019 02:30 1,2 C 1,2 C 1,3 C 89 % 1019,1 hPa 0,0 l/m 0,0 km/h (0 Bft) S-SW 205 0 min -0,4 C 1,2 C 0,0 km/h (0 Bft)
19.02.2019 02:15 1,3 C 1,3 C 1,3 C 89 % 1019,1 hPa 0,0 l/m 0,0 km/h (0 Bft) S-SW 205 0 min -0,3 C 1,3 C 0,0 km/h (0 Bft)
19.02.2019 02:00 1,3 C 1,3 C 1,4 C 89 % 1019,1 hPa 0,0 l/m 0,0 km/h (0 Bft) S-SW 205 0 min -0,3 C 1,3 C 0,0 km/h (0 Bft)
19.02.2019 01:45 1,4 C 1,4 C 1,6 C 89 % 1019,1 hPa 0,0 l/m 0,0 km/h (0 Bft) S-SW 205 0 min -0,2 C 1,4 C 0,0 km/h (0 Bft)
19.02.2019 01:30 1,6 C 1,5 C 1,6 C 89 % 1019,1 hPa 0,0 l/m 0,0 km/h (0 Bft) S-SW 205 0 min -0,0 C 1,6 C 0,0 km/h (0 Bft)
19.02.2019 01:15 1,6 C 1,5 C 1,6 C 89 % 1019,1 hPa 0,0 l/m 0,0 km/h (0 Bft) S-SW 205 0 min -0,0 C 1,6 C 0,0 km/h (0 Bft)
19.02.2019 01:00 1,5 C 1,4 C 1,5 C 89 % 1019,1 hPa 0,0 l/m 0,0 km/h (0 Bft) S-SW 205 0 min -0,1 C 1,5 C 0,0 km/h (0 Bft)
_ Min-Zeit 00:30 00:30 00:30 17:00 03:30 - 01:00 - - - 00:30 00:30 01:00
Minimum _ 0,2 C 0,2 C 0,4 C 71 % 1018,8 hPa - 0,0 km/h (0 Bft) - - - -1,2 C 0,2 C 0,0 km/h (0 Bft)
_ Max-Zeit 14:15 15:00 14:15 05:16 00:15 09:15 16:45 - - 01:00 12:00 14:15 16:45
Maximum _ 10,3 C 9,9 C 10,3 C 93 % 1023,5 hPa 0,2 l/m 3,5 km/h
W-NW (1 Bft)
- - 0 min 6,4 C 10,1 C 17,7 km/h
W-SW (3 Bft)
Durchschnitt _ 4,8 C 4,7 C 4,9 C 85 % 1021,2 hPa #0,4 l/m 0,4 km/h (0 Bft) W - #0 min. 2,4 C 4,8 C 3,7 km/h (1 Bft)